KPIM/PIM METAR and TAF weather

Enter ICAO airport designator
Station Type Date Time Source
KPIM METAR 2022/09/28 17:55 UTC NOAA

KPIM 281755Z AUTO 02007G16KT 10SM CLR 23/02 A3017 RMK AO2 T02330016 10234 20100


Station Type Date Time Source
KPIM Decoded METAR 2022/09/28 17:55 UTC NOAA

Station name not available
Sep 28, 2022 - 01:55 PM EDT / 2022.09.28 1755 UTC
Wind: from the NNE (020 degrees) at 8 MPH (7 KT) gusting to 18 MPH (16 KT):0
Visibility: 10 mile(s):0
Sky conditions: clear
Temperature: 73.9 F (23.3 C)
Dew Point: 34.9 F (1.6 C)
Relative Humidity: 23%
Pressure (altimeter): 30.17 in. Hg (1021 hPa)
ob: KPIM 281755Z AUTO 02007G16KT 10SM CLR 23/02 A3017 RMK AO2 T02330016 10234 20100
cycle: 18

Station Type Date Time Source
KPIM TAF UTC NOAA

Error!

Example: see airport list